Time;durP1;ratioP1;P1;durP2;ratioP2;P2;SDS_P1;SDS_P2;PMS_P1;PMS_P2;Temp;Humidity;BMP_temperature;BMP_pressure;BME280_temperature;BME280_humidity;BME280_pressure;Samples;Min_cycle;Max_cycle;Signal;HPM_P1;HPM_P2
2022/11/09 00:01:17;;;;;;;13.45;7.38;;;;;;;6.11;83.44;97113.31;5096024;28;20048;-60
2022/11/09 00:03:47;;;;;;;13.45;7.07;;;;;;;6.10;82.72;97117.63;5095977;28;20055;-60
2022/11/09 00:06:15;;;;;;;16.55;8.82;;;;;;;6.11;82.98;97118.50;5096319;28;20078;-60
2022/11/09 00:08:42;;;;;;;14.38;7.28;;;;;;;6.01;82.91;97118.56;5096213;28;20044;-60
2022/11/09 00:11:11;;;;;;;12.02;7.35;;;;;;;6.02;83.57;97122.03;5095891;28;20068;-60
2022/11/09 00:13:40;;;;;;;13.55;7.65;;;;;;;6.02;83.41;97119.44;5095868;28;20040;-60
2022/11/09 00:16:09;;;;;;;15.68;7.65;;;;;;;6.03;82.16;97123.75;5095824;28;20083;-60
2022/11/09 00:18:37;;;;;;;10.35;6.45;;;;;;;6.02;81.59;97117.69;5095727;28;20123;-60
2022/11/09 00:21:08;;;;;;;10.55;6.50;;;;;;;5.99;81.22;97125.50;5095537;28;20489;-59
2022/11/09 00:23:35;;;;;;;12.57;7.53;;;;;;;5.94;80.88;97122.09;5095483;28;20047;-60
2022/11/09 00:26:03;;;;;;;17.17;8.18;;;;;;;5.92;80.97;97129.91;5095559;28;20059;-61
2022/11/09 00:28:30;;;;;;;12.30;7.65;;;;;;;5.93;80.69;97129.03;5095724;28;20127;-60
2022/11/09 00:31:00;;;;;;;13.10;7.13;;;;;;;5.93;80.14;97130.78;5095598;28;20048;-60
2022/11/09 00:33:28;;;;;;;14.52;7.43;;;;;;;5.81;80.09;97122.22;5095661;28;20478;-60
2022/11/09 00:35:55;;;;;;;13.25;7.00;;;;;;;5.79;80.71;97123.13;5095396;28;20455;-60
2022/11/09 00:38:24;;;;;;;10.65;6.57;;;;;;;5.77;80.52;97130.03;5095385;28;20052;-60
2022/11/09 00:40:51;;;;;;;13.27;7.25;;;;;;;5.71;80.38;97128.38;5095328;28;20495;-59
2022/11/09 00:43:19;;;;;;;11.20;7.18;;;;;;;5.63;80.04;97122.41;5095254;28;20119;-61
2022/11/09 00:45:47;;;;;;;9.38;6.35;;;;;;;5.59;81.11;97123.28;5095236;28;20075;-60
2022/11/09 00:48:14;;;;;;;12.63;7.55;;;;;;;5.52;81.86;97120.75;5095195;28;20119;-60
2022/11/09 00:50:41;;;;;;;10.38;7.18;;;;;;;5.51;82.17;97121.63;5095180;28;20078;-60
2022/11/09 00:53:08;;;;;;;12.88;7.35;;;;;;;5.52;82.08;97122.47;5095052;28;20091;-60
2022/11/09 00:55:37;;;;;;;11.05;6.80;;;;;;;5.47;82.03;97124.25;5095046;28;20044;-60
2022/11/09 00:58:04;;;;;;;13.15;6.57;;;;;;;5.34;82.32;97118.31;5095187;28;20091;-60
2022/11/09 01:00:31;;;;;;;14.13;7.38;;;;;;;5.26;83.28;97119.22;5094924;28;20044;-60
2022/11/09 01:02:58;;;;;;;17.13;7.72;;;;;;;5.20;83.63;97123.59;5095191;28;20069;-60
2022/11/09 01:05:25;;;;;;;14.23;8.00;;;;;;;5.26;84.10;97107.97;5094936;28;20052;-59
2022/11/09 01:07:52;;;;;;;12.95;7.55;;;;;;;5.29;83.91;97119.19;5094777;28;20051;-60
2022/11/09 01:10:19;;;;;;;21.20;8.27;;;;;;;5.27;84.47;97120.94;5095057;28;20047;-59
2022/11/09 01:12:47;;;;;;;12.27;7.30;;;;;;;5.32;84.31;97120.91;5094899;28;20128;-60
2022/11/09 01:15:14;;;;;;;11.65;7.40;;;;;;;5.36;83.84;97124.34;5094712;28;20447;-60
2022/11/09 01:17:41;;;;;;;14.70;8.32;;;;;;;5.39;83.32;97121.72;5094575;28;20048;-60
2022/11/09 01:20:10;;;;;;;12.63;7.38;;;;;;;5.40;82.95;97121.72;5094537;28;20498;-60
2022/11/09 01:22:37;;;;;;;18.27;7.65;;;;;;;5.41;82.55;97119.97;5094287;28;20059;-61
2022/11/09 01:25:04;;;;;;;12.23;7.18;;;;;;;5.45;82.64;97116.50;5094766;28;20159;-60
2022/11/09 01:27:33;;;;;;;18.40;8.15;;;;;;;5.41;82.91;97119.97;5094473;28;20055;-61
2022/11/09 01:30:02;;;;;;;21.25;8.88;;;;;;;5.45;83.73;97116.50;5093942;28;20040;-61
2022/11/09 01:32:32;;;;;;;14.68;8.18;;;;;;;5.51;84.02;97118.19;5094376;28;20052;-60
2022/11/09 01:34:59;;;;;;;16.58;8.20;;;;;;;5.62;84.90;97118.94;5094484;28;20048;-61
2022/11/09 01:37:26;;;;;;;11.93;8.00;;;;;;;5.68;84.62;97118.00;5094246;28;20044;-61
2022/11/09 01:39:53;;;;;;;14.98;8.05;;;;;;;5.73;84.51;97113.66;5094152;28;20055;-60
2022/11/09 01:42:24;;;;;;;17.23;8.30;;;;;;;5.79;84.42;97115.31;5094169;28;20110;-61
2022/11/09 01:45:23;;;;;;;15.57;7.78;;;;;;;5.88;84.56;97115.25;5094231;28;20113;-60
2022/11/09 01:47:57;;;;;;;15.40;10.13;;;;;;;5.97;85.42;97114.28;5094022;28;20051;-61
2022/11/09 01:50:32;;;;;;;13.57;8.43;;;;;;;6.02;85.66;97115.09;5093974;28;20078;-60
2022/11/09 01:53:02;;;;;;;15.55;9.40;;;;;;;6.11;86.26;97111.56;5094000;28;20460;-60
2022/11/09 01:55:30;;;;;;;14.02;8.13;;;;;;;6.18;86.20;97117.56;5093923;28;20040;-60
2022/11/09 01:58:01;;;;;;;15.45;8.13;;;;;;;6.20;86.32;97115.78;5093942;28;20055;-60
2022/11/09 02:00:28;;;;;;;;;;;;;;;6.23;86.42;97114.91;5094268;28;20048;-60
2022/11/09 02:03:01;;;;;;;12.77;8.50;;;;;;;6.29;86.84;97117.44;5093832;28;19926;-60
2022/11/09 02:05:31;;;;;;;11.88;7.90;;;;;;;6.39;86.38;97110.38;5093719;28;20106;-61
2022/11/09 02:08:01;;;;;;;21.70;9.82;;;;;;;6.45;86.39;97110.31;5093756;28;20051;-60
2022/11/09 02:10:35;;;;;;;14.57;8.60;;;;;;;6.54;87.38;97106.75;5094067;28;20051;-60
2022/11/09 02:13:02;;;;;;;16.15;8.90;;;;;;;6.60;87.36;97114.47;5093606;28;20109;-61
2022/11/09 02:15:30;;;;;;;15.13;8.98;;;;;;;6.66;87.23;97110.91;5093661;28;20405;-60
2022/11/09 02:18:00;;;;;;;15.35;8.25;;;;;;;6.72;86.81;97110.84;5093524;28;20048;-60
2022/11/09 02:20:29;;;;;;;17.75;9.05;;;;;;;6.79;87.12;97109.00;5093468;28;20040;-61
2022/11/09 02:22:56;;;;;;;12.82;8.20;;;;;;;6.82;86.85;97112.44;5093286;28;20086;-60
2022/11/09 02:25:24;;;;;;;18.05;9.57;;;;;;;6.88;86.79;97114.09;5093461;28;20044;-61
2022/11/09 02:27:51;;;;;;;14.50;9.00;;;;;;;6.93;86.86;97111.41;5093380;28;20048;-60
2022/11/09 02:30:20;;;;;;;15.65;8.00;;;;;;;6.98;86.85;97101.78;5093412;28;20176;-60
2022/11/09 02:32:48;;;;;;;15.23;8.43;;;;;;;6.99;87.31;97113.94;5093422;28;20153;-61
2022/11/09 02:35:14;;;;;;;17.67;7.65;;;;;;;7.04;86.93;97106.03;5093335;28;20051;-60
2022/11/09 02:37:48;;;;;;;17.88;8.23;;;;;;;7.07;86.72;97100.78;5093630;28;20603;-61
2022/11/09 02:40:19;;;;;;;15.75;9.30;;;;;;;7.10;86.53;97107.72;5093155;28;20486;-60
2022/11/09 02:42:46;;;;;;;17.52;9.85;;;;;;;7.10;87.09;97103.34;5092247;28;20229;-60
2022/11/09 02:45:14;;;;;;;17.45;9.27;;;;;;;7.15;87.05;97103.28;5093278;28;20485;-61
2022/11/09 02:47:41;;;;;;;19.58;9.00;;;;;;;7.22;86.75;97106.69;5093257;28;20094;-61
2022/11/09 02:50:09;;;;;;;14.45;9.02;;;;;;;7.26;87.30;97109.22;5093224;28;20469;-61
2022/11/09 02:52:36;;;;;;;16.85;9.25;;;;;;;7.31;87.02;97104.78;5093130;28;20054;-60
2022/11/09 02:55:05;;;;;;;14.30;9.00;;;;;;;7.38;87.10;97105.56;5093270;28;20072;-61
2022/11/09 02:57:32;;;;;;;12.55;8.57;;;;;;;7.39;86.98;97103.78;5093028;28;20040;-61
2022/11/09 02:59:59;;;;;;;18.83;8.50;;;;;;;7.43;86.90;97106.31;5093006;28;20043;-61
2022/11/09 03:02:27;;;;;;;14.07;8.70;;;;;;;7.41;86.74;97107.25;5092935;28;20056;-61
2022/11/09 03:04:54;;;;;;;17.27;8.82;;;;;;;7.40;87.35;97108.97;5093033;28;20066;-60
2022/11/09 03:07:21;;;;;;;18.13;8.38;;;;;;;7.43;87.29;97106.31;5093228;28;20040;-61
2022/11/09 03:09:48;;;;;;;14.10;8.05;;;;;;;7.50;86.61;97114.03;5093006;28;20105;-61
2022/11/09 03:12:29;;;;;;;11.60;7.93;;;;;;;7.54;86.48;97111.34;5092927;28;20093;-61
2022/11/09 03:14:56;;;;;;;;;;;;;;;7.52;86.73;97118.31;5093247;28;20549;-61
2022/11/09 03:17:24;;;;;;;13.45;8.88;;;;;;;7.55;87.67;97115.66;5092964;28;20300;-60
2022/11/09 03:19:51;;;;;;;17.67;9.10;;;;;;;7.60;87.42;97113.00;5093033;28;20044;-60
2022/11/09 03:22:21;;;;;;;15.40;9.20;;;;;;;7.65;87.31;97112.91;5092813;28;20044;-60
2022/11/09 03:24:48;;;;;;;12.57;7.57;;;;;;;7.66;87.15;97115.50;5092821;28;20083;-61
2022/11/09 03:27:17;;;;;;;16.15;9.93;;;;;;;7.69;87.42;97120.66;5092874;28;20078;-60
2022/11/09 03:29:44;;;;;;;17.33;9.55;;;;;;;7.70;87.58;97114.56;5093272;28;20079;-60
2022/11/09 03:32:11;;;;;;;13.95;7.78;;;;;;;7.73;86.91;97118.00;5093031;28;20123;-60
2022/11/09 03:34:38;;;;;;;15.10;8.23;;;;;;;7.74;86.63;97117.09;5092662;28;20452;-60
2022/11/09 03:37:05;;;;;;;12.35;7.97;;;;;;;7.75;86.26;97119.69;5092667;28;20151;-60
2022/11/09 03:39:32;;;;;;;13.40;8.52;;;;;;;7.77;86.11;97120.50;5092687;28;20398;-60
2022/11/09 03:41:59;;;;;;;14.73;8.15;;;;;;;7.75;85.91;97126.63;5092637;28;20052;-60
2022/11/09 03:44:29;;;;;;;14.95;8.50;;;;;;;7.75;85.91;97124.91;5092642;28;20051;-60
2022/11/09 03:46:56;;;;;;;12.65;8.02;;;;;;;7.77;85.62;97124.88;5092562;28;20460;-61
2022/11/09 03:49:23;;;;;;;13.88;8.20;;;;;;;7.79;84.87;97118.75;5092478;28;20410;-60
2022/11/09 03:51:51;;;;;;;14.07;8.80;;;;;;;7.81;84.80;97121.31;5092579;28;20091;-61
2022/11/09 03:54:18;;;;;;;15.93;8.57;;;;;;;7.80;84.68;97128.25;5095240;28;20049;-61
2022/11/09 03:56:45;;;;;;;12.10;8.23;;;;;;;7.78;84.42;97131.78;5096251;28;20127;-60
2022/11/09 03:59:12;;;;;;;19.17;8.32;;;;;;;7.76;85.13;97125.72;5096258;28;20052;-60
2022/11/09 04:01:41;;;;;;;17.10;8.60;;;;;;;7.76;84.77;97123.13;5096111;28;20391;-60
2022/11/09 04:04:08;;;;;;;14.50;8.88;;;;;;;7.76;84.75;97117.91;5096085;28;20048;-60
2022/11/09 04:06:36;;;;;;;12.68;7.47;;;;;;;7.78;84.50;97116.16;5096060;28;20041;-60
2022/11/09 04:09:03;;;;;;;17.70;9.18;;;;;;;7.80;84.62;97117.84;5096029;28;20574;-60
2022/11/09 04:11:30;;;;;;;12.95;8.48;;;;;;;7.82;85.15;97112.59;5095906;28;20048;-60
2022/11/09 04:13:57;;;;;;;17.25;7.65;;;;;;;7.84;85.61;97116.94;5095891;28;20044;-60
2022/11/09 04:16:24;;;;;;;14.05;7.95;;;;;;;7.87;86.08;97112.53;5096063;28;20074;-60
2022/11/09 04:18:52;;;;;;;13.10;8.38;;;;;;;7.89;86.39;97115.97;5095876;28;20127;-60
2022/11/09 04:21:20;;;;;;;17.23;9.18;;;;;;;7.95;87.03;97106.28;5095779;28;20080;-60
2022/11/09 04:23:49;;;;;;;14.27;9.13;;;;;;;8.00;86.80;97114.03;5095497;28;20131;-60
2022/11/09 04:26:16;;;;;;;15.10;9.05;;;;;;;8.04;86.54;97110.47;5095605;28;20121;-60
2022/11/09 04:28:43;;;;;;;13.00;8.65;;;;;;;8.08;86.44;97106.94;5095645;28;20123;-60
2022/11/09 04:31:11;;;;;;;12.75;7.88;;;;;;;8.11;86.11;97106.00;5095879;28;20130;-60
2022/11/09 04:33:38;;;;;;;16.20;8.88;;;;;;;8.13;85.49;97109.44;5095559;28;20048;-60
2022/11/09 04:36:07;;;;;;;13.02;8.48;;;;;;;8.17;85.08;97116.31;5095496;28;20055;-60
2022/11/09 04:38:35;;;;;;;15.55;8.57;;;;;;;8.18;85.30;97111.97;5095479;28;20048;-61
2022/11/09 04:41:03;;;;;;;13.02;8.43;;;;;;;8.16;85.61;97114.59;5095390;28;20097;-60
2022/11/09 04:43:30;;;;;;;13.55;8.70;;;;;;;8.18;85.65;97114.56;5095411;28;20398;-60
2022/11/09 04:46:00;;;;;;;18.63;9.10;;;;;;;8.21;85.26;97117.13;5095192;28;20044;-61
2022/11/09 04:48:27;;;;;;;16.63;9.07;;;;;;;8.20;85.12;97115.41;5095256;28;20048;-60
2022/11/09 04:51:00;;;;;;;16.33;8.15;;;;;;;8.17;85.54;97118.06;5095183;28;20048;-60
2022/11/09 04:53:29;;;;;;;15.13;8.23;;;;;;;8.17;85.94;97110.25;5095054;28;20052;-61
2022/11/09 04:55:57;;;;;;;16.50;9.45;;;;;;;8.24;86.49;97121.44;5095391;28;20109;-61
2022/11/09 04:58:25;;;;;;;14.88;8.65;;;;;;;8.22;86.38;97117.09;5094987;28;20101;-60
2022/11/09 05:00:52;;;;;;;19.17;9.30;;;;;;;8.21;87.07;97120.59;5094947;28;20131;-61
2022/11/09 05:03:20;;;;;;;17.48;9.77;;;;;;;8.18;87.80;97122.38;5094817;28;20044;-60
2022/11/09 05:05:48;;;;;;;19.23;9.23;;;;;;;8.18;87.78;97119.78;5094079;28;20044;-61
2022/11/09 05:08:16;;;;;;;17.85;8.43;;;;;;;8.21;87.40;97125.81;5094743;28;20044;-60
2022/11/09 05:10:44;;;;;;;13.05;7.28;;;;;;;8.21;87.27;97130.13;5094802;28;20063;-60
2022/11/09 05:13:13;;;;;;;15.10;9.02;;;;;;;8.26;86.77;97137.88;5094950;28;20136;-60
2022/11/09 05:15:41;;;;;;;15.20;8.95;;;;;;;8.32;86.90;97133.41;5094675;28;20436;-60
2022/11/09 05:18:10;;;;;;;15.65;8.20;;;;;;;8.36;86.43;97141.19;5094788;28;20047;-60
2022/11/09 05:20:37;;;;;;;19.50;9.40;;;;;;;8.41;86.46;97140.19;5094562;28;20059;-60
2022/11/09 05:25:50;;;;;;;15.20;9.05;;;;;;;8.51;86.02;97145.22;5094922;28;20158;-60
2022/11/09 05:28:17;;;;;;;13.18;7.85;;;;;;;8.58;85.67;97150.31;5094444;28;20401;-60
2022/11/09 05:30:45;;;;;;;19.30;8.73;;;;;;;8.65;85.27;97151.06;5094366;28;20083;-60
2022/11/09 05:33:13;;;;;;;17.77;8.30;;;;;;;8.76;85.01;97153.44;5094498;28;20197;-60
2022/11/09 05:35:40;;;;;;;14.63;8.88;;;;;;;8.88;84.42;97151.47;5094384;28;20051;-60
2022/11/09 05:38:07;;;;;;;13.77;8.32;;;;;;;8.98;83.93;97155.59;5094246;28;20044;-61
2022/11/09 05:40:34;;;;;;;12.23;7.07;;;;;;;9.10;84.00;97162.28;5094192;28;20126;-60
2022/11/09 05:43:03;;;;;;;12.98;8.18;;;;;;;9.28;83.94;97163.63;5094154;28;20047;-60
2022/11/09 05:45:30;;;;;;;17.90;8.02;;;;;;;9.58;83.10;97157.72;5094258;28;20090;-60
2022/11/09 05:47:57;;;;;;;14.23;7.53;;;;;;;10.11;81.16;97165.09;5094165;28;20202;-59
2022/11/09 05:50:25;;;;;;;10.52;7.15;;;;;;;10.88;77.87;97165.66;5094108;28;20182;-60
2022/11/09 05:52:53;;;;;;;13.20;7.25;;;;;;;11.55;74.47;97163.66;5093909;28;20052;-60
2022/11/09 05:55:20;;;;;;;8.63;6.18;;;;;;;11.77;72.59;97170.78;5093955;28;20040;-60
2022/11/09 05:57:47;;;;;;;9.57;6.25;;;;;;;11.82;72.04;97174.13;5093894;28;20429;-60
2022/11/09 06:00:17;;;;;;;10.00;6.28;;;;;;;12.00;71.34;97171.81;5093899;28;20048;-61
2022/11/09 06:02:44;;;;;;;9.20;6.05;;;;;;;12.66;69.88;97177.44;5093705;28;20052;-60
2022/11/09 06:05:11;;;;;;;10.48;6.10;;;;;;;13.66;66.14;97179.00;5093646;28;20044;-61
2022/11/09 06:07:39;;;;;;;9.52;5.45;;;;;;;14.61;62.94;97181.16;5093780;28;20101;-61
2022/11/09 06:10:08;;;;;;;8.88;5.30;;;;;;;15.54;59.71;97178.69;5093705;28;20059;-61
2022/11/09 06:12:35;;;;;;;6.57;5.22;;;;;;;16.45;57.23;97186.63;5093618;28;20044;-61
2022/11/09 06:15:02;;;;;;;9.05;5.55;;;;;;;17.12;54.50;97184.03;5093642;28;20040;-61
2022/11/09 06:17:31;;;;;;;9.73;5.03;;;;;;;17.74;53.26;97179.75;5093469;28;20048;-61
2022/11/09 06:19:58;;;;;;;7.47;4.80;;;;;;;18.16;51.25;97190.63;5093538;28;20125;-61
2022/11/09 06:22:25;;;;;;;8.70;5.97;;;;;;;18.06;51.17;97192.03;5093223;28;20054;-61
2022/11/09 06:24:52;;;;;;;10.25;5.65;;;;;;;17.78;51.75;97189.22;5093604;28;20135;-60
2022/11/09 06:27:19;;;;;;;7.22;4.95;;;;;;;17.48;52.45;97192.66;5093418;28;20094;-61
2022/11/09 06:29:46;;;;;;;6.72;4.72;;;;;;;17.26;52.91;97198.28;5093348;28;20091;-61
2022/11/09 06:32:13;;;;;;;8.00;5.63;;;;;;;17.02;52.78;97202.16;5093267;28;20155;-61
2022/11/09 06:34:43;;;;;;;8.50;5.75;;;;;;;16.85;53.27;97204.81;5093279;28;20080;-60
2022/11/09 06:37:10;;;;;;;13.70;7.47;;;;;;;16.61;53.05;97200.75;5093354;28;20425;-61
2022/11/09 06:39:37;;;;;;;10.40;7.47;;;;;;;16.40;53.75;97203.56;5093378;28;20040;-61
2022/11/09 06:42:04;;;;;;;11.43;7.60;;;;;;;16.23;54.50;97195.66;5093140;28;20102;-60
2022/11/09 06:44:31;;;;;;;11.05;7.07;;;;;;;16.21;54.75;97197.50;5093179;28;20056;-61
2022/11/09 06:46:58;;;;;;;11.85;7.88;;;;;;;16.60;54.74;97206.97;5093124;28;20056;-61
2022/11/09 06:49:26;;;;;;;9.60;7.30;;;;;;;17.62;52.31;97212.19;5093131;28;20044;-61
2022/11/09 06:51:54;;;;;;;11.27;7.30;;;;;;;18.76;50.13;97209.19;5093116;28;20051;-61
2022/11/09 06:54:22;;;;;;;16.83;7.50;;;;;;;19.87;46.51;97212.91;5093069;28;20074;-61
2022/11/09 06:56:49;;;;;;;8.63;5.65;;;;;;;20.84;44.22;97207.38;5093087;28;20072;-61
2022/11/09 06:59:16;;;;;;;9.10;5.93;;;;;;;21.74;41.76;97203.84;5093114;28;20045;-61
2022/11/09 07:01:43;;;;;;;9.77;5.25;;;;;;;22.51;39.93;97197.25;5092997;28;20055;-61
2022/11/09 07:04:14;;;;;;;10.82;5.25;;;;;;;23.26;38.10;97204.03;5092873;28;20051;-62
2022/11/09 07:06:41;;;;;;;8.25;5.47;;;;;;;23.83;37.39;97209.28;5092933;28;20044;-61
2022/11/09 07:09:11;;;;;;;7.50;5.50;;;;;;;24.39;36.01;97199.41;5092947;28;20088;-61
2022/11/09 07:11:38;;;;;;;7.07;5.23;;;;;;;24.70;35.07;97198.59;5093126;28;20121;-61
2022/11/09 07:14:05;;;;;;;8.40;5.65;;;;;;;25.15;34.56;97201.94;5093206;28;20055;-61
2022/11/09 07:16:32;;;;;;;8.35;5.65;;;;;;;25.65;33.52;97190.44;5092912;28;20044;-61
2022/11/09 07:19:00;;;;;;;8.43;6.07;;;;;;;26.01;32.83;97195.28;5092807;28;20106;-61
2022/11/09 07:21:27;;;;;;;8.80;5.95;;;;;;;26.36;32.13;97191.19;5092929;28;20048;-61
2022/11/09 07:23:54;;;;;;;7.43;5.50;;;;;;;26.64;31.29;97194.97;5092558;28;20094;-61
2022/11/09 07:26:22;;;;;;;8.90;6.32;;;;;;;26.64;31.64;97197.66;5092831;28;20415;-61
2022/11/09 07:28:49;;;;;;;8.38;5.55;;;;;;;26.57;31.55;97192.00;5094894;28;20083;-61
2022/11/09 07:31:16;;;;;;;9.48;5.85;;;;;;;26.71;31.20;97191.56;5096697;28;20543;-61
2022/11/09 07:33:45;;;;;;;8.85;5.95;;;;;;;26.93;30.67;97191.34;5096642;28;20052;-61
2022/11/09 07:36:12;;;;;;;7.40;5.78;;;;;;;27.36;30.07;97198.00;5096815;28;20098;-61
2022/11/09 07:38:39;;;;;;;7.85;5.45;;;;;;;27.85;29.45;97196.91;5096644;28;20048;-61
2022/11/09 07:41:06;;;;;;;8.07;5.30;;;;;;;27.68;29.63;97189.63;5096583;28;20052;-61
2022/11/09 07:43:35;;;;;;;9.43;5.40;;;;;;;27.94;29.47;97196.97;5096469;28;20109;-61
2022/11/09 07:46:04;;;;;;;8.50;5.45;;;;;;;28.04;28.67;97199.56;5096480;28;20127;-61
2022/11/09 07:48:31;;;;;;;12.05;5.68;;;;;;;27.71;29.10;97189.34;5096489;28;20048;-61
2022/11/09 07:51:01;;;;;;;7.75;5.30;;;;;;;27.08;29.86;97186.38;5096304;28;20379;-61
2022/11/09 07:53:29;;;;;;;8.38;5.15;;;;;;;26.32;30.94;97194.31;5096633;28;20135;-61
2022/11/09 07:55:57;;;;;;;11.25;5.78;;;;;;;25.92;31.77;97191.63;5096279;28;20101;-61
2022/11/09 07:58:24;;;;;;;8.98;5.25;;;;;;;25.66;32.21;97194.81;5096252;28;20075;-61
2022/11/09 08:00:53;;;;;;;10.70;5.85;;;;;;;25.42;33.00;97193.31;5096135;28;20055;-61
2022/11/09 08:03:21;;;;;;;9.30;6.35;;;;;;;24.83;33.62;97191.22;5096042;28;20052;-61
2022/11/09 08:05:49;;;;;;;14.43;6.53;;;;;;;24.08;35.17;97193.94;5095992;28;20473;-61
2022/11/09 08:08:16;;;;;;;10.80;6.97;;;;;;;23.35;36.37;97185.47;5096063;28;20044;-61
2022/11/09 08:10:50;;;;;;;13.32;7.50;;;;;;;22.63;37.81;97187.50;5096481;28;20132;-61
2022/11/09 08:13:20;;;;;;;10.63;7.53;;;;;;;21.84;39.82;97180.94;5096217;28;20052;-61
2022/11/09 08:15:48;;;;;;;18.80;7.32;;;;;;;21.42;40.70;97187.44;5095935;28;20075;-61
2022/11/09 08:18:18;;;;;;;10.25;6.53;;;;;;;21.25;41.07;97180.66;5095871;28;20040;-61
2022/11/09 08:20:46;;;;;;;10.50;6.65;;;;;;;20.76;41.71;97184.97;5095879;28;20102;-61
2022/11/09 08:23:14;;;;;;;10.20;6.53;;;;;;;20.56;42.30;97182.72;5095634;28;20052;-61
2022/11/09 08:25:42;;;;;;;9.75;6.05;;;;;;;20.38;42.75;97184.81;5095731;28;20123;-60
2022/11/09 08:28:09;;;;;;;10.75;5.97;;;;;;;20.08;43.38;97185.97;5095908;28;20520;-60
2022/11/09 08:30:36;;;;;;;9.55;5.43;;;;;;;19.79;44.13;97186.03;5095714;28;20478;-60
2022/11/09 08:33:04;;;;;;;16.90;6.88;;;;;;;19.46;43.97;97182.81;5095845;28;20086;-60
2022/11/09 08:35:33;;;;;;;8.77;5.65;;;;;;;19.23;45.04;97187.78;5095542;28;20383;-60
2022/11/09 08:38:02;;;;;;;10.93;6.28;;;;;;;19.25;44.87;97191.19;5095637;28;20052;-60
2022/11/09 08:40:30;;;;;;;10.48;6.13;;;;;;;18.91;45.59;97193.28;5094046;28;20051;-61
2022/11/09 08:43:01;;;;;;;14.68;6.70;;;;;;;18.71;46.11;97190.06;5095454;28;20440;-61
2022/11/09 08:45:29;;;;;;;13.43;6.68;;;;;;;18.68;46.11;97187.59;5095321;28;20059;-60
2022/11/09 08:47:58;;;;;;;14.68;6.10;;;;;;;18.73;45.71;97189.97;5095274;28;20134;-60
2022/11/09 08:50:26;;;;;;;9.95;6.07;;;;;;;18.51;46.32;97189.44;5095295;28;20052;-61
2022/11/09 08:52:55;;;;;;;11.48;5.68;;;;;;;18.51;46.82;97192.09;5095159;28;20075;-60
2022/11/09 08:55:23;;;;;;;12.45;6.38;;;;;;;18.59;47.17;97188.13;5095220;28;20067;-61
2022/11/09 08:57:54;;;;;;;11.45;6.45;;;;;;;18.59;46.17;97189.00;5095150;28;20040;-61
2022/11/09 09:00:21;;;;;;;10.07;6.35;;;;;;;18.51;46.98;97188.63;5095290;28;20455;-61
2022/11/09 09:02:48;;;;;;;13.13;6.15;;;;;;;18.58;46.43;97189.09;5095009;28;20520;-60
2022/11/09 09:05:16;;;;;;;10.80;5.93;;;;;;;18.53;46.75;97190.22;5095284;28;20048;-60
2022/11/09 09:07:43;;;;;;;10.18;5.22;;;;;;;18.51;45.55;97194.75;5094926;28;20054;-61
2022/11/09 09:10:13;;;;;;;12.57;6.03;;;;;;;18.34;46.72;97201.06;5094953;28;20048;-61
2022/11/09 09:12:40;;;;;;;9.57;5.68;;;;;;;18.29;46.24;97189.88;5094798;28;20513;-60
2022/11/09 09:15:08;;;;;;;9.38;5.50;;;;;;;18.23;46.92;97187.59;5094711;28;20428;-61
2022/11/09 09:17:35;;;;;;;9.52;5.63;;;;;;;18.33;47.12;97188.75;5094973;28;20169;-61
2022/11/09 09:20:02;;;;;;;10.90;5.90;;;;;;;18.45;46.27;97192.47;5094800;28;20075;-60
2022/11/09 09:22:32;;;;;;;9.63;5.55;;;;;;;18.40;46.39;97184.81;5094407;28;20039;-61
2022/11/09 09:24:59;;;;;;;8.30;5.68;;;;;;;18.25;46.75;97183.06;5094748;28;20055;-60
2022/11/09 09:27:29;;;;;;;12.45;6.05;;;;;;;18.16;46.94;97180.03;5094443;28;20048;-61
2022/11/09 09:29:56;;;;;;;9.27;5.97;;;;;;;18.15;47.19;97182.78;5094408;28;20048;-60
2022/11/09 09:32:23;;;;;;;11.00;6.00;;;;;;;18.28;46.76;97185.53;5094752;28;20048;-60
2022/11/09 09:34:51;;;;;;;7.68;5.38;;;;;;;18.36;47.04;97177.97;5094417;28;20448;-61
2022/11/09 09:37:18;;;;;;;9.90;5.13;;;;;;;18.14;46.50;97183.69;5094325;28;20501;-60
2022/11/09 09:39:45;;;;;;;10.25;6.07;;;;;;;18.07;46.93;97180.53;5094228;28;20063;-61
2022/11/09 09:42:17;;;;;;;8.20;5.18;;;;;;;17.84;46.55;97173.91;5094228;28;20101;-60
2022/11/09 09:44:51;;;;;;;10.43;5.88;;;;;;;17.72;48.13;97172.81;5094129;28;20051;-60
2022/11/09 09:47:24;;;;;;;10.73;5.53;;;;;;;17.71;47.69;97171.13;5094195;28;20129;-60
2022/11/09 09:49:56;;;;;;;14.05;5.75;;;;;;;17.64;47.56;97165.34;5094109;28;20051;-60
2022/11/09 09:52:31;;;;;;;7.15;4.70;;;;;;;17.66;48.27;97161.66;5093616;28;20554;-60
2022/11/09 09:55:06;;;;;;;10.10;4.78;;;;;;;17.64;47.86;97160.06;5094021;28;20460;-60
2022/11/09 09:57:35;;;;;;;7.50;5.30;;;;;;;17.62;48.02;97159.28;5093814;28;20508;-60
2022/11/09 10:00:08;;;;;;;6.82;4.50;;;;;;;17.72;48.18;97156.94;5093963;28;20055;-60
2022/11/09 10:02:36;;;;;;;7.82;4.57;;;;;;;17.67;47.46;97159.88;5093877;28;20604;-60
2022/11/09 10:05:07;;;;;;;7.32;5.47;;;;;;;17.29;47.33;97155.81;5093787;28;20052;-60
2022/11/09 10:07:41;;;;;;;5.93;4.82;;;;;;;17.14;48.59;97154.88;5093738;28;20513;-60
2022/11/09 10:10:34;;;;;;;9.48;5.07;;;;;;;16.98;48.74;97153.00;5093612;28;20123;-60
2022/11/09 10:13:24;;;;;;;10.82;5.57;;;;;;;16.83;48.60;97159.16;5093716;28;20044;-60
2022/11/09 10:15:57;;;;;;;12.02;4.82;;;;;;;16.62;49.56;97156.72;5091356;28;20086;-60
2022/11/09 10:18:35;;;;;;;9.68;4.55;;;;;;;16.59;49.64;97147.19;5093907;28;20135;-60
2022/11/09 10:21:18;;;;;;;10.63;4.32;;;;;;;16.70;50.22;97146.59;5093520;28;20539;-60
2022/11/09 10:23:57;;;;;;;6.38;3.97;;;;;;;16.82;49.76;97147.72;5093249;28;20498;-60
2022/11/09 10:26:32;;;;;;;12.35;4.93;;;;;;;16.80;49.06;97145.16;5093475;28;20055;-60
2022/11/09 10:29:03;;;;;;;7.25;5.03;;;;;;;16.79;49.60;97146.09;5093405;28;20055;-60
2022/11/09 10:31:41;;;;;;;10.20;5.25;;;;;;;16.79;49.33;97145.25;5093336;28;20557;-60
2022/11/09 10:34:18;;;;;;;6.53;4.45;;;;;;;16.79;49.30;97142.59;5093384;28;20540;-60
2022/11/09 10:36:53;;;;;;;8.60;5.00;;;;;;;16.73;49.46;97141.16;5093310;28;20438;-60
2022/11/09 10:39:24;;;;;;;10.52;5.05;;;;;;;16.74;49.67;97136.72;5093289;28;20756;-61
2022/11/09 10:41:52;;;;;;;9.18;5.53;;;;;;;16.87;48.67;97140.41;5093266;28;20051;-60
2022/11/09 10:44:20;;;;;;;16.35;7.05;;;;;;;16.86;49.66;97136.03;5093150;28;20090;-61
2022/11/09 10:47:10;;;;;;;8.85;5.93;;;;;;;16.88;49.45;97131.53;5093331;28;20125;-60
2022/11/09 10:49:38;;;;;;;13.37;6.27;;;;;;;17.00;49.29;97132.66;5093186;28;20056;-60
2022/11/09 10:52:06;;;;;;;14.30;6.72;;;;;;;17.09;48.90;97138.41;5093083;28;20044;-60
2022/11/09 10:54:36;;;;;;;10.15;6.32;;;;;;;17.09;48.48;97128.69;5093086;28;20050;-60
2022/11/09 10:57:14;;;;;;;12.82;7.55;;;;;;;16.91;48.82;97120.81;5093112;28;20056;-61
2022/11/09 10:59:47;;;;;;;11.65;6.43;;;;;;;16.85;48.64;97115.84;5093040;28;20048;-61
2022/11/09 11:02:41;;;;;;;13.27;7.57;;;;;;;16.84;49.01;97119.44;5093049;28;20119;-61
2022/11/09 11:05:30;;;;;;;17.98;7.50;;;;;;;16.97;49.04;97116.97;5097078;28;20050;-60
2022/11/09 11:07:57;;;;;;;12.85;7.30;;;;;;;16.99;48.92;97116.88;5097265;28;20052;-61
2022/11/09 11:10:25;;;;;;;14.48;7.28;;;;;;;17.01;49.13;97110.56;5097224;28;20072;-61
2022/11/09 11:13:17;;;;;;;16.98;6.75;;;;;;;16.94;48.76;97103.94;5097231;28;20093;-61
2022/11/09 11:15:45;;;;;;;11.00;6.75;;;;;;;16.93;48.79;97108.38;5097146;28;20131;-61
2022/11/09 11:18:18;;;;;;;11.38;6.43;;;;;;;16.93;48.97;97103.09;5097030;28;20090;-60
2022/11/09 11:20:46;;;;;;;19.13;6.90;;;;;;;16.94;48.64;97101.28;5097100;28;20044;-60
2022/11/09 11:23:16;;;;;;;15.05;7.88;;;;;;;16.89;48.97;97101.53;5096800;28;20441;-60
2022/11/09 11:26:03;;;;;;;15.23;7.95;;;;;;;16.90;48.97;97097.97;5096743;28;20051;-61
2022/11/09 11:28:34;;;;;;;16.85;8.65;;;;;;;16.90;49.31;97090.03;5097065;28;20052;-61
2022/11/09 11:31:02;;;;;;;17.88;7.65;;;;;;;17.00;48.88;97087.72;5096808;28;20048;-60
2022/11/09 11:33:33;;;;;;;13.60;8.43;;;;;;;17.11;48.12;97084.53;5096768;28;20048;-61
2022/11/09 11:36:12;;;;;;;16.98;8.23;;;;;;;17.17;48.07;97085.97;5096704;28;20127;-61
2022/11/09 11:38:49;;;;;;;12.90;6.90;;;;;;;17.17;48.25;97080.69;5096662;28;20048;-60
2022/11/09 11:41:40;;;;;;;13.43;7.65;;;;;;;17.11;48.32;97081.88;5096605;28;20494;-61
2022/11/09 11:44:20;;;;;;;11.15;6.82;;;;;;;17.12;48.26;97077.44;5096378;28;20048;-61